sensor_id;sensor_type;location;lat;lon;timestamp;P1;durP1;ratioP1;P2;durP2;ratioP2
64957;SDS011;51486;50.232;19.208;2022-11-20T00:00:04;99.43;;;39.67;;
64957;SDS011;51486;50.232;19.208;2022-11-20T00:02:30;116.77;;;44.03;;
64957;SDS011;51486;50.232;19.208;2022-11-20T00:04:56;115.00;;;44.50;;
64957;SDS011;51486;50.232;19.208;2022-11-20T00:07:21;112.03;;;42.57;;
64957;SDS011;51486;50.232;19.208;2022-11-20T00:09:46;125.67;;;48.17;;
64957;SDS011;51486;50.232;19.208;2022-11-20T00:12:12;220.63;;;77.70;;
64957;SDS011;51486;50.232;19.208;2022-11-20T00:14:38;235.80;;;73.67;;
64957;SDS011;51486;50.232;19.208;2022-11-20T00:17:03;181.17;;;60.07;;
64957;SDS011;51486;50.232;19.208;2022-11-20T00:19:28;148.73;;;56.83;;
64957;SDS011;51486;50.232;19.208;2022-11-20T00:21:54;196.77;;;63.70;;
64957;SDS011;51486;50.232;19.208;2022-11-20T00:24:20;224.20;;;72.17;;
64957;SDS011;51486;50.232;19.208;2022-11-20T00:26:46;200.30;;;66.60;;
64957;SDS011;51486;50.232;19.208;2022-11-20T00:29:11;160.63;;;59.63;;
64957;SDS011;51486;50.232;19.208;2022-11-20T00:31:36;161.37;;;55.37;;
64957;SDS011;51486;50.232;19.208;2022-11-20T00:34:02;145.10;;;49.30;;
64957;SDS011;51486;50.232;19.208;2022-11-20T00:36:28;117.73;;;44.33;;
64957;SDS011;51486;50.232;19.208;2022-11-20T00:38:57;118.20;;;45.93;;
64957;SDS011;51486;50.232;19.208;2022-11-20T00:41:23;131.67;;;46.03;;
64957;SDS011;51486;50.232;19.208;2022-11-20T00:43:51;118.07;;;43.60;;
64957;SDS011;51486;50.232;19.208;2022-11-20T00:46:18;111.73;;;45.30;;
64957;SDS011;51486;50.232;19.208;2022-11-20T00:48:44;116.13;;;45.13;;
64957;SDS011;51486;50.232;19.208;2022-11-20T00:51:11;105.77;;;43.97;;
64957;SDS011;51486;50.232;19.208;2022-11-20T00:53:41;113.37;;;43.80;;
64957;SDS011;51486;50.232;19.208;2022-11-20T00:56:07;114.67;;;43.17;;
64957;SDS011;51486;50.232;19.208;2022-11-20T00:58:36;112.47;;;43.00;;
64957;SDS011;51486;50.232;19.208;2022-11-20T01:03:37;109.57;;;43.30;;
64957;SDS011;51486;50.232;19.208;2022-11-20T01:06:05;113.70;;;43.60;;
64957;SDS011;51486;50.232;19.208;2022-11-20T01:08:33;114.77;;;42.90;;
64957;SDS011;51486;50.232;19.208;2022-11-20T01:11:01;109.13;;;42.27;;
64957;SDS011;51486;50.232;19.208;2022-11-20T01:13:28;110.37;;;41.93;;
64957;SDS011;51486;50.232;19.208;2022-11-20T01:18:29;109.20;;;45.67;;
64957;SDS011;51486;50.232;19.208;2022-11-20T01:20:54;133.07;;;51.80;;
64957;SDS011;51486;50.232;19.208;2022-11-20T01:23:20;145.67;;;59.10;;
64957;SDS011;51486;50.232;19.208;2022-11-20T01:25:45;129.13;;;49.77;;
64957;SDS011;51486;50.232;19.208;2022-11-20T01:28:10;121.33;;;47.47;;
64957;SDS011;51486;50.232;19.208;2022-11-20T01:30:36;120.30;;;47.23;;
64957;SDS011;51486;50.232;19.208;2022-11-20T01:33:01;121.30;;;48.27;;
64957;SDS011;51486;50.232;19.208;2022-11-20T01:35:27;121.57;;;47.37;;
64957;SDS011;51486;50.232;19.208;2022-11-20T01:37:52;128.60;;;49.77;;
64957;SDS011;51486;50.232;19.208;2022-11-20T01:40:17;138.47;;;48.97;;
64957;SDS011;51486;50.232;19.208;2022-11-20T01:42:52;132.17;;;47.17;;
64957;SDS011;51486;50.232;19.208;2022-11-20T01:48:28;128.10;;;45.60;;
64957;SDS011;51486;50.232;19.208;2022-11-20T01:51:06;123.17;;;44.23;;
64957;SDS011;51486;50.232;19.208;2022-11-20T01:53:37;112.90;;;46.40;;
64957;SDS011;51486;50.232;19.208;2022-11-20T01:56:04;138.57;;;45.50;;
64957;SDS011;51486;50.232;19.208;2022-11-20T01:58:33;129.43;;;45.53;;
64957;SDS011;51486;50.232;19.208;2022-11-20T02:01:03;130.20;;;48.33;;
64957;SDS011;51486;50.232;19.208;2022-11-20T02:03:29;138.77;;;49.67;;
64957;SDS011;51486;50.232;19.208;2022-11-20T02:06:12;124.47;;;47.90;;
64957;SDS011;51486;50.232;19.208;2022-11-20T02:08:44;136.20;;;49.27;;
64957;SDS011;51486;50.232;19.208;2022-11-20T02:11:09;131.13;;;47.90;;
64957;SDS011;51486;50.232;19.208;2022-11-20T02:13:35;134.70;;;50.53;;
64957;SDS011;51486;50.232;19.208;2022-11-20T02:16:10;135.07;;;50.37;;
64957;SDS011;51486;50.232;19.208;2022-11-20T02:18:47;132.23;;;51.27;;
64957;SDS011;51486;50.232;19.208;2022-11-20T02:21:16;128.47;;;51.00;;
64957;SDS011;51486;50.232;19.208;2022-11-20T02:23:58;141.17;;;51.40;;
64957;SDS011;51486;50.232;19.208;2022-11-20T02:26:25;148.63;;;49.90;;
64957;SDS011;51486;50.232;19.208;2022-11-20T02:28:53;131.80;;;47.43;;
64957;SDS011;51486;50.232;19.208;2022-11-20T02:31:19;133.70;;;48.10;;
64957;SDS011;51486;50.232;19.208;2022-11-20T02:33:45;129.60;;;48.10;;
64957;SDS011;51486;50.232;19.208;2022-11-20T02:36:11;135.30;;;48.30;;
64957;SDS011;51486;50.232;19.208;2022-11-20T02:38:41;128.50;;;48.83;;
64957;SDS011;51486;50.232;19.208;2022-11-20T02:41:07;134.20;;;52.87;;
64957;SDS011;51486;50.232;19.208;2022-11-20T02:43:32;136.80;;;48.90;;
64957;SDS011;51486;50.232;19.208;2022-11-20T02:45:57;131.70;;;49.03;;
64957;SDS011;51486;50.232;19.208;2022-11-20T02:48:23;106.07;;;45.67;;
64957;SDS011;51486;50.232;19.208;2022-11-20T02:50:48;132.80;;;47.60;;
64957;SDS011;51486;50.232;19.208;2022-11-20T02:53:14;140.50;;;48.33;;
64957;SDS011;51486;50.232;19.208;2022-11-20T02:55:39;145.90;;;49.37;;
64957;SDS011;51486;50.232;19.208;2022-11-20T02:58:04;122.23;;;46.57;;
64957;SDS011;51486;50.232;19.208;2022-11-20T03:00:30;138.70;;;47.67;;
64957;SDS011;51486;50.232;19.208;2022-11-20T03:02:56;118.20;;;45.93;;
64957;SDS011;51486;50.232;19.208;2022-11-20T03:05:22;113.83;;;48.43;;
64957;SDS011;51486;50.232;19.208;2022-11-20T03:07:47;118.20;;;45.50;;
64957;SDS011;51486;50.232;19.208;2022-11-20T03:10:13;127.27;;;45.10;;
64957;SDS011;51486;50.232;19.208;2022-11-20T03:12:38;107.73;;;43.20;;
64957;SDS011;51486;50.232;19.208;2022-11-20T03:15:04;115.70;;;42.30;;
64957;SDS011;51486;50.232;19.208;2022-11-20T03:17:29;112.50;;;42.83;;
64957;SDS011;51486;50.232;19.208;2022-11-20T03:19:55;122.73;;;43.10;;
64957;SDS011;51486;50.232;19.208;2022-11-20T03:22:21;105.87;;;43.00;;
64957;SDS011;51486;50.232;19.208;2022-11-20T03:24:46;129.23;;;44.27;;
64957;SDS011;51486;50.232;19.208;2022-11-20T03:27:12;124.17;;;44.87;;
64957;SDS011;51486;50.232;19.208;2022-11-20T03:29:37;111.67;;;42.83;;
64957;SDS011;51486;50.232;19.208;2022-11-20T03:32:03;116.23;;;42.60;;
64957;SDS011;51486;50.232;19.208;2022-11-20T03:34:28;119.53;;;42.20;;
64957;SDS011;51486;50.232;19.208;2022-11-20T03:36:53;107.33;;;40.73;;
64957;SDS011;51486;50.232;19.208;2022-11-20T03:39:19;122.20;;;41.30;;
64957;SDS011;51486;50.232;19.208;2022-11-20T03:41:44;107.20;;;42.03;;
64957;SDS011;51486;50.232;19.208;2022-11-20T03:44:10;97.07;;;41.67;;
64957;SDS011;51486;50.232;19.208;2022-11-20T03:46:36;109.77;;;45.37;;
64957;SDS011;51486;50.232;19.208;2022-11-20T03:49:02;121.47;;;43.77;;
64957;SDS011;51486;50.232;19.208;2022-11-20T03:51:29;110.03;;;43.67;;
64957;SDS011;51486;50.232;19.208;2022-11-20T03:54:00;122.40;;;44.07;;
64957;SDS011;51486;50.232;19.208;2022-11-20T03:56:29;114.13;;;43.00;;
64957;SDS011;51486;50.232;19.208;2022-11-20T03:58:55;101.93;;;40.63;;
64957;SDS011;51486;50.232;19.208;2022-11-20T04:01:22;97.40;;;38.53;;
64957;SDS011;51486;50.232;19.208;2022-11-20T04:03:52;119.17;;;40.70;;
64957;SDS011;51486;50.232;19.208;2022-11-20T04:06:23;105.90;;;40.00;;
64957;SDS011;51486;50.232;19.208;2022-11-20T04:08:51;112.20;;;40.67;;
64957;SDS011;51486;50.232;19.208;2022-11-20T04:11:19;108.57;;;37.93;;
64957;SDS011;51486;50.232;19.208;2022-11-20T04:13:47;102.13;;;39.67;;
64957;SDS011;51486;50.232;19.208;2022-11-20T04:16:17;101.07;;;37.60;;
64957;SDS011;51486;50.232;19.208;2022-11-20T04:18:43;93.53;;;38.07;;
64957;SDS011;51486;50.232;19.208;2022-11-20T04:21:09;104.97;;;38.37;;
64957;SDS011;51486;50.232;19.208;2022-11-20T04:23:35;117.87;;;40.57;;
64957;SDS011;51486;50.232;19.208;2022-11-20T04:26:05;106.60;;;37.87;;
64957;SDS011;51486;50.232;19.208;2022-11-20T04:28:35;116.63;;;38.57;;
64957;SDS011;51486;50.232;19.208;2022-11-20T04:31:05;107.63;;;39.67;;
64957;SDS011;51486;50.232;19.208;2022-11-20T04:33:33;102.83;;;38.20;;
64957;SDS011;51486;50.232;19.208;2022-11-20T04:36:00;99.30;;;38.23;;
64957;SDS011;51486;50.232;19.208;2022-11-20T04:38:27;90.30;;;36.43;;
64957;SDS011;51486;50.232;19.208;2022-11-20T04:40:55;98.53;;;37.43;;
64957;SDS011;51486;50.232;19.208;2022-11-20T04:43:22;92.47;;;37.63;;
64957;SDS011;51486;50.232;19.208;2022-11-20T04:45:50;97.03;;;36.33;;
64957;SDS011;51486;50.232;19.208;2022-11-20T04:48:17;98.73;;;34.70;;
64957;SDS011;51486;50.232;19.208;2022-11-20T04:50:42;90.53;;;35.37;;
64957;SDS011;51486;50.232;19.208;2022-11-20T04:53:07;111.00;;;39.13;;
64957;SDS011;51486;50.232;19.208;2022-11-20T04:55:33;87.70;;;35.13;;
64957;SDS011;51486;50.232;19.208;2022-11-20T04:57:58;103.27;;;37.07;;
64957;SDS011;51486;50.232;19.208;2022-11-20T05:00:23;109.97;;;38.13;;
64957;SDS011;51486;50.232;19.208;2022-11-20T05:02:49;89.33;;;35.67;;
64957;SDS011;51486;50.232;19.208;2022-11-20T05:05:14;98.30;;;37.20;;
64957;SDS011;51486;50.232;19.208;2022-11-20T05:07:39;108.50;;;38.53;;
64957;SDS011;51486;50.232;19.208;2022-11-20T05:10:05;98.40;;;35.97;;
64957;SDS011;51486;50.232;19.208;2022-11-20T05:12:31;97.00;;;35.93;;
64957;SDS011;51486;50.232;19.208;2022-11-20T05:14:56;94.87;;;38.13;;
64957;SDS011;51486;50.232;19.208;2022-11-20T05:17:22;91.97;;;36.10;;
64957;SDS011;51486;50.232;19.208;2022-11-20T05:19:47;113.90;;;38.80;;
64957;SDS011;51486;50.232;19.208;2022-11-20T05:22:12;91.47;;;36.57;;
64957;SDS011;51486;50.232;19.208;2022-11-20T05:24:38;100.50;;;36.33;;
64957;SDS011;51486;50.232;19.208;2022-11-20T05:27:03;100.33;;;39.13;;
64957;SDS011;51486;50.232;19.208;2022-11-20T05:29:28;105.00;;;39.50;;
64957;SDS011;51486;50.232;19.208;2022-11-20T05:31:54;101.60;;;36.67;;
64957;SDS011;51486;50.232;19.208;2022-11-20T05:34:19;98.67;;;37.23;;
64957;SDS011;51486;50.232;19.208;2022-11-20T05:36:44;96.87;;;37.87;;
64957;SDS011;51486;50.232;19.208;2022-11-20T05:39:10;116.10;;;40.70;;
64957;SDS011;51486;50.232;19.208;2022-11-20T05:41:35;150.73;;;52.07;;
64957;SDS011;51486;50.232;19.208;2022-11-20T05:44:01;131.67;;;49.27;;
64957;SDS011;51486;50.232;19.208;2022-11-20T05:46:26;141.47;;;48.37;;
64957;SDS011;51486;50.232;19.208;2022-11-20T05:48:52;122.63;;;45.77;;
64957;SDS011;51486;50.232;19.208;2022-11-20T05:51:18;129.97;;;45.93;;
64957;SDS011;51486;50.232;19.208;2022-11-20T05:53:43;126.27;;;46.23;;
64957;SDS011;51486;50.232;19.208;2022-11-20T05:56:10;130.27;;;48.20;;
64957;SDS011;51486;50.232;19.208;2022-11-20T05:58:41;170.43;;;53.60;;
64957;SDS011;51486;50.232;19.208;2022-11-20T06:01:11;149.33;;;52.20;;
64957;SDS011;51486;50.232;19.208;2022-11-20T06:03:38;139.23;;;49.20;;
64957;SDS011;51486;50.232;19.208;2022-11-20T06:06:04;164.03;;;55.43;;
64957;SDS011;51486;50.232;19.208;2022-11-20T06:08:31;138.43;;;53.00;;
64957;SDS011;51486;50.232;19.208;2022-11-20T06:10:57;134.80;;;49.33;;
64957;SDS011;51486;50.232;19.208;2022-11-20T06:13:22;139.97;;;52.37;;
64957;SDS011;51486;50.232;19.208;2022-11-20T06:15:49;150.20;;;52.97;;
64957;SDS011;51486;50.232;19.208;2022-11-20T06:18:15;146.77;;;49.23;;
64957;SDS011;51486;50.232;19.208;2022-11-20T06:20:40;131.83;;;44.97;;
64957;SDS011;51486;50.232;19.208;2022-11-20T06:23:05;145.43;;;50.07;;
64957;SDS011;51486;50.232;19.208;2022-11-20T06:25:31;179.00;;;60.43;;
64957;SDS011;51486;50.232;19.208;2022-11-20T06:27:56;153.23;;;61.73;;
64957;SDS011;51486;50.232;19.208;2022-11-20T06:30:21;186.40;;;69.83;;
64957;SDS011;51486;50.232;19.208;2022-11-20T06:32:47;183.17;;;64.60;;
64957;SDS011;51486;50.232;19.208;2022-11-20T06:35:12;195.23;;;64.53;;
64957;SDS011;51486;50.232;19.208;2022-11-20T06:37:37;175.37;;;66.83;;
64957;SDS011;51486;50.232;19.208;2022-11-20T06:40:03;165.03;;;57.90;;
64957;SDS011;51486;50.232;19.208;2022-11-20T06:42:29;148.77;;;52.83;;
64957;SDS011;51486;50.232;19.208;2022-11-20T06:44:54;151.87;;;52.63;;
64957;SDS011;51486;50.232;19.208;2022-11-20T06:47:20;140.20;;;49.87;;
64957;SDS011;51486;50.232;19.208;2022-11-20T06:49:45;118.40;;;46.60;;
64957;SDS011;51486;50.232;19.208;2022-11-20T06:52:10;121.67;;;45.47;;
64957;SDS011;51486;50.232;19.208;2022-11-20T06:54:36;117.50;;;43.20;;
64957;SDS011;51486;50.232;19.208;2022-11-20T06:57:01;121.97;;;43.23;;
64957;SDS011;51486;50.232;19.208;2022-11-20T06:59:26;123.53;;;46.40;;
64957;SDS011;51486;50.232;19.208;2022-11-20T07:01:52;131.40;;;49.87;;
64957;SDS011;51486;50.232;19.208;2022-11-20T07:04:17;138.27;;;49.93;;
64957;SDS011;51486;50.232;19.208;2022-11-20T07:06:42;142.27;;;53.90;;
64957;SDS011;51486;50.232;19.208;2022-11-20T07:09:08;127.00;;;49.53;;
64957;SDS011;51486;50.232;19.208;2022-11-20T07:11:33;110.50;;;45.30;;
64957;SDS011;51486;50.232;19.208;2022-11-20T07:14:00;132.27;;;49.23;;
64957;SDS011;51486;50.232;19.208;2022-11-20T07:16:25;115.00;;;48.63;;
64957;SDS011;51486;50.232;19.208;2022-11-20T07:18:51;123.20;;;43.73;;
64957;SDS011;51486;50.232;19.208;2022-11-20T07:21:16;109.10;;;40.53;;
64957;SDS011;51486;50.232;19.208;2022-11-20T07:23:42;104.77;;;38.93;;
64957;SDS011;51486;50.232;19.208;2022-11-20T07:26:08;111.90;;;41.23;;
64957;SDS011;51486;50.232;19.208;2022-11-20T07:28:35;99.67;;;39.63;;
64957;SDS011;51486;50.232;19.208;2022-11-20T07:31:00;116.17;;;41.97;;
64957;SDS011;51486;50.232;19.208;2022-11-20T07:33:26;122.40;;;43.30;;
64957;SDS011;51486;50.232;19.208;2022-11-20T07:35:52;109.90;;;42.77;;
64957;SDS011;51486;50.232;19.208;2022-11-20T07:38:17;105.43;;;39.73;;
64957;SDS011;51486;50.232;19.208;2022-11-20T07:40:43;101.77;;;40.17;;
64957;SDS011;51486;50.232;19.208;2022-11-20T07:43:08;98.63;;;39.27;;
64957;SDS011;51486;50.232;19.208;2022-11-20T07:45:34;102.23;;;38.87;;
64957;SDS011;51486;50.232;19.208;2022-11-20T07:47:59;98.70;;;40.43;;
64957;SDS011;51486;50.232;19.208;2022-11-20T07:50:25;112.80;;;38.97;;
64957;SDS011;51486;50.232;19.208;2022-11-20T07:52:50;87.97;;;37.90;;
64957;SDS011;51486;50.232;19.208;2022-11-20T07:55:15;109.90;;;38.07;;
64957;SDS011;51486;50.232;19.208;2022-11-20T07:57:41;91.40;;;39.23;;
64957;SDS011;51486;50.232;19.208;2022-11-20T08:00:07;98.27;;;39.63;;
64957;SDS011;51486;50.232;19.208;2022-11-20T08:02:36;97.33;;;40.57;;
64957;SDS011;51486;50.232;19.208;2022-11-20T08:05:05;106.80;;;41.47;;
64957;SDS011;51486;50.232;19.208;2022-11-20T08:07:38;99.23;;;39.43;;
64957;SDS011;51486;50.232;19.208;2022-11-20T08:10:04;107.97;;;42.53;;
64957;SDS011;51486;50.232;19.208;2022-11-20T08:12:30;102.03;;;41.67;;
64957;SDS011;51486;50.232;19.208;2022-11-20T08:15:14;110.43;;;40.97;;
64957;SDS011;51486;50.232;19.208;2022-11-20T08:17:40;101.17;;;41.60;;
64957;SDS011;51486;50.232;19.208;2022-11-20T08:20:05;104.27;;;42.67;;
64957;SDS011;51486;50.232;19.208;2022-11-20T08:22:31;106.63;;;40.00;;
64957;SDS011;51486;50.232;19.208;2022-11-20T08:24:56;105.93;;;42.50;;
64957;SDS011;51486;50.232;19.208;2022-11-20T08:27:22;104.10;;;45.33;;
64957;SDS011;51486;50.232;19.208;2022-11-20T08:29:48;134.43;;;47.97;;
64957;SDS011;51486;50.232;19.208;2022-11-20T08:32:13;172.07;;;61.60;;
64957;SDS011;51486;50.232;19.208;2022-11-20T08:34:38;181.33;;;64.50;;
64957;SDS011;51486;50.232;19.208;2022-11-20T08:37:04;139.83;;;55.07;;
64957;SDS011;51486;50.232;19.208;2022-11-20T08:39:29;147.70;;;56.10;;
64957;SDS011;51486;50.232;19.208;2022-11-20T08:41:55;152.37;;;57.70;;
64957;SDS011;51486;50.232;19.208;2022-11-20T08:44:20;136.07;;;54.43;;
64957;SDS011;51486;50.232;19.208;2022-11-20T08:46:45;152.63;;;54.37;;
64957;SDS011;51486;50.232;19.208;2022-11-20T08:49:12;136.27;;;53.07;;
64957;SDS011;51486;50.232;19.208;2022-11-20T08:51:39;128.73;;;50.57;;
64957;SDS011;51486;50.232;19.208;2022-11-20T08:54:05;111.13;;;46.93;;
64957;SDS011;51486;50.232;19.208;2022-11-20T08:56:30;135.47;;;51.43;;
64957;SDS011;51486;50.232;19.208;2022-11-20T08:58:56;122.23;;;46.97;;
64957;SDS011;51486;50.232;19.208;2022-11-20T09:01:22;120.93;;;46.53;;
64957;SDS011;51486;50.232;19.208;2022-11-20T09:03:48;107.37;;;43.30;;
64957;SDS011;51486;50.232;19.208;2022-11-20T09:06:14;104.20;;;41.10;;
64957;SDS011;51486;50.232;19.208;2022-11-20T09:08:40;100.40;;;40.17;;
64957;SDS011;51486;50.232;19.208;2022-11-20T09:11:05;100.63;;;39.60;;
64957;SDS011;51486;50.232;19.208;2022-11-20T09:13:32;116.90;;;42.73;;
64957;SDS011;51486;50.232;19.208;2022-11-20T09:15:59;113.27;;;41.53;;
64957;SDS011;51486;50.232;19.208;2022-11-20T09:18:27;95.30;;;39.50;;
64957;SDS011;51486;50.232;19.208;2022-11-20T09:20:57;102.57;;;42.10;;
64957;SDS011;51486;50.232;19.208;2022-11-20T09:23:27;98.63;;;38.63;;
64957;SDS011;51486;50.232;19.208;2022-11-20T09:25:56;93.77;;;40.23;;
64957;SDS011;51486;50.232;19.208;2022-11-20T09:28:24;103.33;;;40.80;;
64957;SDS011;51486;50.232;19.208;2022-11-20T09:30:50;85.60;;;38.03;;
64957;SDS011;51486;50.232;19.208;2022-11-20T09:33:16;107.47;;;41.77;;
64957;SDS011;51486;50.232;19.208;2022-11-20T09:35:42;96.13;;;38.73;;
64957;SDS011;51486;50.232;19.208;2022-11-20T09:38:08;94.97;;;37.10;;
64957;SDS011;51486;50.232;19.208;2022-11-20T09:40:36;102.10;;;36.43;;
64957;SDS011;51486;50.232;19.208;2022-11-20T09:43:15;99.77;;;37.17;;
64957;SDS011;51486;50.232;19.208;2022-11-20T09:45:56;99.30;;;38.33;;
64957;SDS011;51486;50.232;19.208;2022-11-20T09:48:36;105.83;;;37.23;;
64957;SDS011;51486;50.232;19.208;2022-11-20T09:53:52;109.33;;;40.73;;
64957;SDS011;51486;50.232;19.208;2022-11-20T09:56:27;115.83;;;40.10;;
64957;SDS011;51486;50.232;19.208;2022-11-20T09:58:54;112.60;;;44.93;;
64957;SDS011;51486;50.232;19.208;2022-11-20T10:01:23;113.23;;;42.93;;
64957;SDS011;51486;50.232;19.208;2022-11-20T10:03:56;131.30;;;50.13;;
64957;SDS011;51486;50.232;19.208;2022-11-20T10:06:29;159.60;;;58.70;;
64957;SDS011;51486;50.232;19.208;2022-11-20T10:09:43;145.83;;;55.80;;
64957;SDS011;51486;50.232;19.208;2022-11-20T10:17:03;142.07;;;54.17;;
64957;SDS011;51486;50.232;19.208;2022-11-20T10:19:54;128.00;;;51.07;;
64957;SDS011;51486;50.232;19.208;2022-11-20T10:22:45;148.20;;;55.40;;
64957;SDS011;51486;50.232;19.208;2022-11-20T10:25:19;149.53;;;56.63;;
64957;SDS011;51486;50.232;19.208;2022-11-20T10:27:59;159.37;;;58.50;;
64957;SDS011;51486;50.232;19.208;2022-11-20T10:30:37;148.87;;;55.87;;
64957;SDS011;51486;50.232;19.208;2022-11-20T10:33:11;128.37;;;50.60;;
64957;SDS011;51486;50.232;19.208;2022-11-20T10:35:43;100.00;;;43.87;;
64957;SDS011;51486;50.232;19.208;2022-11-20T10:38:24;121.33;;;45.10;;
64957;SDS011;51486;50.232;19.208;2022-11-20T10:40:56;101.20;;;39.50;;
64957;SDS011;51486;50.232;19.208;2022-11-20T10:43:44;79.73;;;38.60;;
64957;SDS011;51486;50.232;19.208;2022-11-20T10:46:34;84.00;;;35.03;;
64957;SDS011;51486;50.232;19.208;2022-11-20T10:49:12;80.43;;;31.57;;
64957;SDS011;51486;50.232;19.208;2022-11-20T10:51:45;78.23;;;32.77;;
64957;SDS011;51486;50.232;19.208;2022-11-20T10:54:35;77.67;;;31.50;;
64957;SDS011;51486;50.232;19.208;2022-11-20T10:57:25;80.80;;;32.47;;
64957;SDS011;51486;50.232;19.208;2022-11-20T11:00:12;90.07;;;29.77;;
64957;SDS011;51486;50.232;19.208;2022-11-20T11:07:58;68.67;;;30.37;;
64957;SDS011;51486;50.232;19.208;2022-11-20T11:10:28;86.50;;;30.40;;
64957;SDS011;51486;50.232;19.208;2022-11-20T11:13:00;67.03;;;27.60;;
64957;SDS011;51486;50.232;19.208;2022-11-20T11:17:53;59.30;;;28.50;;
64957;SDS011;51486;50.232;19.208;2022-11-20T11:20:20;60.97;;;25.33;;
64957;SDS011;51486;50.232;19.208;2022-11-20T11:22:51;59.33;;;25.00;;
64957;SDS011;51486;50.232;19.208;2022-11-20T11:28:01;59.00;;;25.23;;
64957;SDS011;51486;50.232;19.208;2022-11-20T11:30:27;66.20;;;26.47;;
64957;SDS011;51486;50.232;19.208;2022-11-20T11:33:02;68.77;;;27.13;;
64957;SDS011;51486;50.232;19.208;2022-11-20T11:35:30;59.07;;;26.33;;
64957;SDS011;51486;50.232;19.208;2022-11-20T11:38:03;57.90;;;26.13;;
64957;SDS011;51486;50.232;19.208;2022-11-20T11:40:36;81.13;;;33.60;;
64957;SDS011;51486;50.232;19.208;2022-11-20T11:43:15;76.13;;;32.87;;
64957;SDS011;51486;50.232;19.208;2022-11-20T11:46:02;73.13;;;27.83;;
64957;SDS011;51486;50.232;19.208;2022-11-20T11:48:34;72.77;;;27.00;;
64957;SDS011;51486;50.232;19.208;2022-11-20T11:50:59;112.33;;;40.40;;
64957;SDS011;51486;50.232;19.208;2022-11-20T11:53:24;95.87;;;35.30;;
64957;SDS011;51486;50.232;19.208;2022-11-20T11:55:56;79.23;;;29.80;;
64957;SDS011;51486;50.232;19.208;2022-11-20T12:03:51;66.67;;;28.60;;
64957;SDS011;51486;50.232;19.208;2022-11-20T12:06:23;79.90;;;32.07;;
64957;SDS011;51486;50.232;19.208;2022-11-20T12:08:52;64.47;;;26.40;;
64957;SDS011;51486;50.232;19.208;2022-11-20T12:11:39;72.77;;;30.70;;
64957;SDS011;51486;50.232;19.208;2022-11-20T12:14:16;86.23;;;34.87;;
64957;SDS011;51486;50.232;19.208;2022-11-20T12:16:49;70.90;;;31.03;;
64957;SDS011;51486;50.232;19.208;2022-11-20T12:19:15;61.17;;;27.53;;
64957;SDS011;51486;50.232;19.208;2022-11-20T12:24:33;61.40;;;25.57;;
64957;SDS011;51486;50.232;19.208;2022-11-20T12:30:17;46.17;;;19.00;;
64957;SDS011;51486;50.232;19.208;2022-11-20T12:47:12;47.60;;;20.43;;
64957;SDS011;51486;50.232;19.208;2022-11-20T12:52:46;38.67;;;18.23;;
64957;SDS011;51486;50.232;19.208;2022-11-20T12:55:25;40.97;;;17.63;;
64957;SDS011;51486;50.232;19.208;2022-11-20T12:58:20;38.40;;;17.87;;
64957;SDS011;51486;50.232;19.208;2022-11-20T13:00:53;63.53;;;22.27;;
64957;SDS011;51486;50.232;19.208;2022-11-20T13:06:16;63.83;;;25.93;;
64957;SDS011;51486;50.232;19.208;2022-11-20T13:08:52;65.23;;;27.17;;
64957;SDS011;51486;50.232;19.208;2022-11-20T13:20:00;36.93;;;16.97;;
64957;SDS011;51486;50.232;19.208;2022-11-20T13:24:52;35.60;;;15.33;;
64957;SDS011;51486;50.232;19.208;2022-11-20T13:27:18;44.17;;;19.17;;
64957;SDS011;51486;50.232;19.208;2022-11-20T13:29:59;49.20;;;22.43;;
64957;SDS011;51486;50.232;19.208;2022-11-20T13:32:47;53.73;;;20.37;;
64957;SDS011;51486;50.232;19.208;2022-11-20T13:35:23;38.37;;;19.03;;
64957;SDS011;51486;50.232;19.208;2022-11-20T13:38:00;39.13;;;17.37;;
64957;SDS011;51486;50.232;19.208;2022-11-20T13:40:26;51.90;;;17.40;;
64957;SDS011;51486;50.232;19.208;2022-11-20T13:45:27;48.70;;;20.13;;
64957;SDS011;51486;50.232;19.208;2022-11-20T13:47:54;37.90;;;18.03;;
64957;SDS011;51486;50.232;19.208;2022-11-20T13:50:55;59.43;;;23.77;;
64957;SDS011;51486;50.232;19.208;2022-11-20T13:53:37;60.03;;;24.80;;
64957;SDS011;51486;50.232;19.208;2022-11-20T13:56:26;58.90;;;23.07;;
64957;SDS011;51486;50.232;19.208;2022-11-20T14:02:03;65.70;;;25.57;;
64957;SDS011;51486;50.232;19.208;2022-11-20T14:04:35;57.80;;;23.67;;
64957;SDS011;51486;50.232;19.208;2022-11-20T14:07:07;55.20;;;20.37;;
64957;SDS011;51486;50.232;19.208;2022-11-20T14:09:34;67.03;;;25.90;;
64957;SDS011;51486;50.232;19.208;2022-11-20T14:12:00;77.83;;;25.47;;
64957;SDS011;51486;50.232;19.208;2022-11-20T14:14:27;70.90;;;25.00;;
64957;SDS011;51486;50.232;19.208;2022-11-20T14:17:04;68.20;;;26.43;;
64957;SDS011;51486;50.232;19.208;2022-11-20T14:19:34;64.83;;;26.87;;
64957;SDS011;51486;50.232;19.208;2022-11-20T14:22:21;60.47;;;26.60;;
64957;SDS011;51486;50.232;19.208;2022-11-20T14:24:49;73.93;;;32.67;;
64957;SDS011;51486;50.232;19.208;2022-11-20T14:27:26;72.20;;;29.07;;
64957;SDS011;51486;50.232;19.208;2022-11-20T14:29:52;67.20;;;26.47;;
64957;SDS011;51486;50.232;19.208;2022-11-20T14:32:18;67.97;;;26.57;;
64957;SDS011;51486;50.232;19.208;2022-11-20T14:34:47;73.17;;;26.63;;
64957;SDS011;51486;50.232;19.208;2022-11-20T14:37:22;97.90;;;37.40;;
64957;SDS011;51486;50.232;19.208;2022-11-20T14:39:50;97.70;;;39.00;;
64957;SDS011;51486;50.232;19.208;2022-11-20T14:42:19;115.47;;;39.93;;
64957;SDS011;51486;50.232;19.208;2022-11-20T14:44:49;81.73;;;34.33;;
64957;SDS011;51486;50.232;19.208;2022-11-20T14:47:19;77.47;;;32.40;;
64957;SDS011;51486;50.232;19.208;2022-11-20T14:49:46;76.70;;;31.90;;
64957;SDS011;51486;50.232;19.208;2022-11-20T14:52:17;99.90;;;39.93;;
64957;SDS011;51486;50.232;19.208;2022-11-20T14:55:05;86.73;;;34.77;;
64957;SDS011;51486;50.232;19.208;2022-11-20T14:57:31;84.27;;;34.97;;
64957;SDS011;51486;50.232;19.208;2022-11-20T15:02:30;62.40;;;26.57;;
64957;SDS011;51486;50.232;19.208;2022-11-20T15:04:59;56.07;;;24.97;;
64957;SDS011;51486;50.232;19.208;2022-11-20T15:07:35;49.60;;;22.17;;
64957;SDS011;51486;50.232;19.208;2022-11-20T15:12:50;80.97;;;30.77;;
64957;SDS011;51486;50.232;19.208;2022-11-20T15:15:21;127.23;;;34.90;;
64957;SDS011;51486;50.232;19.208;2022-11-20T15:17:53;90.33;;;34.00;;
64957;SDS011;51486;50.232;19.208;2022-11-20T15:20:19;80.27;;;29.37;;
64957;SDS011;51486;50.232;19.208;2022-11-20T15:22:46;83.87;;;32.57;;
64957;SDS011;51486;50.232;19.208;2022-11-20T15:25:15;71.07;;;29.90;;
64957;SDS011;51486;50.232;19.208;2022-11-20T15:27:43;94.50;;;40.87;;
64957;SDS011;51486;50.232;19.208;2022-11-20T15:30:13;91.77;;;37.43;;